Waterman, Illinois
Current Conditions -  °F | °C
As of 11:55 AM on Tuesday 21 Oct 2014 (Local Time) from KDKB Reporting Station
Overcast Overcast  
Wind Chill: 52°   Ceiling: 3200
Heat Index: 52°   Visibility: 10mi
Dew Point: 38°   Wind: 12mph
Humidity: 60%   Direction: 40°NE
Pressure: 30.19"   Gusts: 17mph
Location:  41.77°N, 88.77°W
Report Text: KDKB 211655Z AUTO 04010G15KT 10SM OVC032 11/03 A3019 RMK AO2 T01090033
Loading
Personal Weather Stations






























Interactive Weather Map
Tropical Storm Tracking
New forecast layout! Learn more

10-Day Weather Forecast

Advertisements
Track Severe Weather on mobile